Time;durP1;ratioP1;P1;durP2;ratioP2;P2;SDS_P1;SDS_P2;PMS_P1;PMS_P2;Temp;Humidity;BMP_temperature;BMP_pressure;BME280_temperature;BME280_humidity;BME280_pressure;Samples;Min_cycle;Max_cycle;Signal;HPM_P1;HPM_P2
2023/07/14 00:01:29;;;;;;;;;;;;;;;;;;6316826;28;19923;-85
2023/07/14 00:04:31;;;;;;;;;;;;;;;;;;6324936;28;20094;-88
2023/07/14 00:07:33;;;;;;;;;;;;;;;;;;6325219;28;19916;-86
2023/07/14 00:10:35;;;;;;;;;;;;;;;;;;6314752;28;20234;-85
2023/07/14 00:13:36;;;;;;;;;;;;;;;;;;6327175;28;19924;-84
2023/07/14 00:16:37;;;;;;;;;;;;;;;;;;6323995;28;19983;-86
2023/07/14 00:19:39;;;;;;;;;;;;;;;;;;6324721;28;19928;-85
2023/07/14 00:22:40;;;;;;;;;;;;;;;;;;6327601;28;19920;-86
2023/07/14 00:25:41;;;;;;;;;;;;;;;;;;6321760;28;19920;-85
2023/07/14 00:28:43;;;;;;;;;;;;;;;;;;6321151;28;19959;-84
2023/07/14 00:31:44;;;;;;;;;;;;;;;;;;6326118;28;19932;-88
2023/07/14 00:34:45;;;;;;;;;;;;;;;;;;6320876;28;19974;-85
2023/07/14 00:37:47;;;;;;;;;;;;;;;;;;6320178;28;19987;-85
2023/07/14 00:40:48;;;;;;;;;;;;;;;;;;6325818;28;19920;-83
2023/07/14 00:43:50;;;;;;;;;;;;;;;;;;6320248;28;19924;-83
2023/07/14 00:46:51;;;;;;;;;;;;;;;;;;6324149;28;19922;-85
2023/07/14 00:49:53;;;;;;;;;;;;;;;;;;6321934;28;19924;-84
2023/07/14 00:52:54;;;;;;;;;;;;;;;;;;6318237;28;19916;-82
2023/07/14 00:55:55;;;;;;;;;;;;;;;;;;6319294;28;19916;-81
2023/07/14 00:58:58;;;;;;;;;;;;;;;;;;6323596;28;19949;-82
2023/07/14 01:01:59;;;;;;;;;;;;;;;;;;6320922;28;19928;-82
2023/07/14 01:05:00;;;;;;;;;;;;;;;;;;6323286;28;20245;-82
2023/07/14 01:08:02;;;;;;;;;;;;;;;;;;6321574;28;19924;-81
2023/07/14 01:11:04;;;;;;;;;;;;;;;;;;6322558;28;19987;-81
2023/07/14 01:14:06;;;;;;;;;;;;;;;;;;6322950;28;19923;-82
2023/07/14 01:17:11;;;;;;;;;;;;;;;;;;6322238;28;19923;-82
2023/07/14 01:20:12;;;;;;;;;;;;;;;;;;6319689;28;19931;-82
2023/07/14 01:23:13;;;;;;;;;;;;;;;;;;6321977;28;19970;-82
2023/07/14 01:26:15;;;;;;;;;;;;;;;;;;6319370;28;20195;-82
2023/07/14 01:29:16;;;;;;;;;;;;;;;;;;6320624;28;19924;-82
2023/07/14 01:32:17;;;;;;;;;;;;;;;;;;6319012;28;19930;-81
2023/07/14 01:35:19;;;;;;;;;;;;;;;;;;6324163;28;19928;-82
2023/07/14 01:38:20;;;;;;;;;;;;;;;;;;6306363;28;20876;-82
2023/07/14 01:41:22;;;;;;;;;;;;;;;;;;6319570;28;19928;-81
2023/07/14 01:44:25;;;;;;;;;;;;;;;;;;6321105;28;20237;-82
2023/07/14 01:47:28;;;;;;;;;;;;;;;;;;6319922;28;19924;-82
2023/07/14 01:50:30;;;;;;;;;;;;;;;;;;6318787;28;19924;-82
2023/07/14 01:53:32;;;;;;;;;;;;;;;;;;6317694;28;20534;-82
2023/07/14 01:56:33;;;;;;;;;;;;;;;;;;6322760;28;19932;-81
2023/07/14 01:59:34;;;;;;;;;;;;;;;;;;6319462;28;19916;-82
2023/07/14 02:02:36;;;;;;;;;;;;;;;;;;6322518;28;20080;-82
2023/07/14 02:05:37;;;;;;;;;;;;;;;;;;6319554;28;20118;-82
2023/07/14 02:08:39;;;;;;;;;;;;;;;;;;6316479;28;19996;-82
2023/07/14 02:11:40;;;;;;;;;;;;;;;;;;6326160;28;19942;-82
2023/07/14 02:14:41;;;;;;;;;;;;;;;;;;6316515;28;20258;-82
2023/07/14 02:17:43;;;;;;;;;;;;;;;;;;6327301;28;19915;-82
2023/07/14 02:20:44;;;;;;;;;;;;;;;;;;6297502;28;19962;-82
2023/07/14 02:24:04;;;;;;;;;;;;;;;;;;6326012;28;19916;-81
2023/07/14 02:27:06;;;;;;;;;;;;;;;;;;6319201;28;20221;-82
2023/07/14 02:30:21;;;;;;;;;;;;;;;;;;6325670;28;19947;-82
2023/07/14 02:33:22;;;;;;;;;;;;;;;;;;6322825;28;19916;-82
2023/07/14 02:36:24;;;;;;;;;;;;;;;;;;6314663;28;19916;-82
2023/07/14 02:39:26;;;;;;;;;;;;;;;;;;6327535;28;20216;-82
2023/07/14 02:42:27;;;;;;;;;;;;;;;;;;6326987;28;19923;-82
2023/07/14 02:45:29;;;;;;;;;;;;;;;;;;6328467;28;19924;-81
2023/07/14 02:48:30;;;;;;;;;;;;;;;;;;6324427;28;19916;-82
2023/07/14 02:51:31;;;;;;;;;;;;;;;;;;6325945;28;19987;-82
2023/07/14 02:54:32;;;;;;;;;;;;;;;;;;6317994;28;19923;-82
2023/07/14 02:57:34;;;;;;;;;;;;;;;;;;6318516;28;20216;-82
2023/07/14 03:00:36;;;;;;;;;;;;;;;;;;6321050;28;19924;-82
2023/07/14 03:03:37;;;;;;;;;;;;;;;;;;6321428;28;19916;-82
2023/07/14 03:06:38;;;;;;;;;;;;;;;;;;6288285;28;19930;-82
2023/07/14 03:09:40;;;;;;;;;;;;;;;;;;6316130;28;19927;-82
2023/07/14 03:12:41;;;;;;;;;;;;;;;;;;6318610;28;19924;-82
2023/07/14 03:15:42;;;;;;;;;;;;;;;;;;6318554;28;19915;-82
2023/07/14 03:18:44;;;;;;;;;;;;;;;;;;6321301;28;20008;-82
2023/07/14 03:21:45;;;;;;;;;;;;;;;;;;6313150;28;19928;-82
2023/07/14 03:24:46;;;;;;;;;;;;;;;;;;6316618;28;19967;-81
2023/07/14 03:27:48;;;;;;;;;;;;;;;;;;6319905;28;19992;-82
2023/07/14 03:30:49;;;;;;;;;;;;;;;;;;6318071;28;19924;-82
2023/07/14 03:33:50;;;;;;;;;;;;;;;;;;6324838;28;21328;-82
2023/07/14 03:36:52;;;;;;;;;;;;;;;;;;6321399;28;19916;-81
2023/07/14 03:39:53;;;;;;;;;;;;;;;;;;6320771;28;19982;-82
2023/07/14 03:42:55;;;;;;;;;;;;;;;;;;6321085;28;19923;-82
2023/07/14 03:45:56;;;;;;;;;;;;;;;;;;6322851;28;20180;-82
2023/07/14 03:48:57;;;;;;;;;;;;;;;;;;6319146;28;19979;-82
2023/07/14 03:51:59;;;;;;;;;;;;;;;;;;6324662;28;20019;-82
2023/07/14 03:55:00;;;;;;;;;;;;;;;;;;6320035;28;19939;-82
2023/07/14 03:58:02;;;;;;;;;;;;;;;;;;6325374;28;20096;-81
2023/07/14 04:01:03;;;;;;;;;;;;;;;;;;6325510;28;20115;-82
2023/07/14 04:04:10;;;;;;;;;;;;;;;;;;6312690;28;19924;-81
2023/07/14 04:07:11;;;;;;;;;;;;;;;;;;6325065;28;19950;-82
2023/07/14 04:10:13;;;;;;;;;;;;;;;;;;6322194;28;20227;-81
2023/07/14 04:13:14;;;;;;;;;;;;;;;;;;6322873;28;20004;-82
2023/07/14 04:16:15;;;;;;;;;;;;;;;;;;6324830;28;19917;-82
2023/07/14 04:19:16;;;;;;;;;;;;;;;;;;6324468;28;19916;-82
2023/07/14 04:22:18;;;;;;;;;;;;;;;;;;6323308;28;19924;-82
2023/07/14 04:25:19;;;;;;;;;;;;;;;;;;6323013;28;19954;-82
2023/07/14 04:28:20;;;;;;;;;;;;;;;;;;6321697;28;19929;-82
2023/07/14 04:31:22;;;;;;;;;;;;;;;;;;6325064;28;19916;-81
2023/07/14 04:34:23;;;;;;;;;;;;;;;;;;6318357;28;19985;-82
2023/07/14 04:37:24;;;;;;;;;;;;;;;;;;6317146;28;20201;-86
2023/07/14 04:40:25;;;;;;;;;;;;;;;;;;6323868;28;19924;-78
2023/07/14 04:43:29;;;;;;;9.82;2.90;;;;;;;;;;6320246;28;20866;-82
2023/07/14 04:46:30;;;;;;;6.25;2.13;;;;;;;;;;6315136;28;20060;-81
2023/07/14 04:49:32;;;;;;;6.20;2.60;;;;;;;;;;6321559;28;20075;-81
2023/07/14 04:52:34;;;;;;;4.00;2.00;;;;;;;;;;6319279;28;20064;-81
2023/07/14 04:55:36;;;;;;;3.70;1.93;;;;;;;;;;6317103;28;20051;-81
2023/07/14 05:02:12;;;;;;;;;;;;;;;;;;6322569;28;20052;-80
2023/07/14 05:05:30;;;;;;;5.28;2.30;;;;;;;;;;6318795;28;19987;-81
2023/07/14 05:12:10;;;;;;;3.92;1.65;;;;;;;;;;6321591;28;20106;-81
2023/07/14 05:15:11;;;;;;;5.93;1.63;;;;;;;;;;6317590;28;20093;-81
2023/07/14 05:18:13;;;;;;;4.25;2.20;;;;;;;;;;6324203;28;20064;-81
2023/07/14 05:21:42;;;;;;;4.15;1.88;;;;;;;;;;6292646;28;20045;-79
2023/07/14 05:24:52;;;;;;;3.05;1.58;;;;;;;;;;6172922;28;20051;-82
2023/07/14 05:27:53;;;;;;;6.75;1.95;;;;;;;;;;6174339;28;20220;-80
2023/07/14 05:42:10;;;;;;;4.55;1.60;;;;;;;;;;5982757;29;20034;-82
2023/07/14 06:11:51;;;;;;;6.03;2.33;;;;;;;;;;6031589;29;20057;-83
2023/07/14 06:22:14;;;;;;;11.05;2.05;;;;;;;;;;6114429;29;20134;-85
2023/07/14 06:25:18;;;;;;;6.75;1.60;;;;;;;;;;6118740;29;20047;-86
2023/07/14 06:28:36;;;;;;;3.10;1.98;;;;;;;;;;6125354;29;20063;-84
2023/07/14 06:31:38;;;;;;;5.68;2.10;;;;;;;;;;6215802;28;20070;-82
2023/07/14 06:34:58;;;;;;;3.50;1.85;;;;;;;;;;6216419;28;20330;-82
2023/07/14 06:38:10;;;;;;;4.05;1.70;;;;;;;;;;6213260;28;20054;-85
2023/07/14 06:49:03;;;;;;;5.30;2.22;;;;;;;;;;6086091;29;20058;-91
2023/07/14 06:52:05;;;;;;;7.72;2.20;;;;;;;;;;6134782;28;20051;-88
2023/07/14 06:55:11;;;;;;;5.28;2.55;;;;;;;;;;6128285;29;20063;-85
2023/07/14 06:58:15;;;;;;;5.20;2.50;;;;;;;;;;6124437;29;20060;-84
2023/07/14 07:01:17;;;;;;;5.05;2.60;;;;;;;;;;6122636;28;20059;-80
2023/07/14 07:04:18;;;;;;;6.15;2.67;;;;;;;;;;6097188;29;20118;-85
2023/07/14 07:07:29;;;;;;;4.72;2.75;;;;;;;;;;6126137;29;20108;-87
2023/07/14 07:10:34;;;;;;;5.65;3.00;;;;;;;;;;6125408;29;20096;-87
2023/07/14 07:13:35;;;;;;;3.63;2.58;;;;;;;;;;6128383;28;20048;-88
2023/07/14 07:17:00;;;;;;;4.45;2.90;;;;;;;;;;6126724;29;20578;-84
2023/07/14 07:20:12;;;;;;;5.35;3.05;;;;;;;;;;6259384;28;20075;-81
2023/07/14 07:23:14;;;;;;;4.35;2.65;;;;;;;;;;6319102;28;20052;-80
2023/07/14 07:26:17;;;;;;;7.30;3.22;;;;;;;;;;6315645;28;20048;-79
2023/07/14 07:29:37;;;;;;;5.70;2.75;;;;;;;;;;6317401;28;20056;-79
2023/07/14 07:32:46;;;;;;;6.00;2.80;;;;;;;;;;6315431;28;20051;-79
2023/07/14 07:43:17;;;;;;;5.07;2.83;;;;;;;;;;6273371;28;20053;-85
2023/07/14 07:46:21;;;;;;;6.15;3.00;;;;;;;;;;6270533;28;20057;-80
2023/07/14 07:49:31;;;;;;;4.28;2.58;;;;;;;;;;6274417;28;20275;-80
2023/07/14 07:55:53;;;;;;;5.57;3.13;;;;;;;;;;6259671;28;20045;-83
2023/07/14 07:58:56;;;;;;;7.63;3.42;;;;;;;;;;6264093;28;20049;-84
2023/07/14 08:01:58;;;;;;;4.72;3.28;;;;;;;;;;6270924;28;20053;-83
2023/07/14 08:04:59;;;;;;;5.97;3.63;;;;;;;;;;6271505;28;20047;-83
2023/07/14 08:08:01;;;;;;;5.38;4.07;;;;;;;;;;6271462;28;20350;-85
2023/07/14 08:11:03;;;;;;;8.02;4.47;;;;;;;;;;6269256;28;21231;-85
2023/07/14 08:14:09;;;;;;;6.50;4.30;;;;;;;;;;6298745;28;20053;-88
2023/07/14 08:17:13;;;;;;;9.93;4.28;;;;;;;;;;6320708;28;20085;-87
2023/07/14 08:20:18;;;;;;;8.43;4.30;;;;;;;;;;6306054;28;20040;-87
2023/07/14 08:23:34;;;;;;;;;;;;;;;;;;;;;
2023/07/14 08:26:47;;;;;;;5.90;4.53;;;;;;;;;;6321395;28;20097;-84
2023/07/14 08:33:12;;;;;;;7.47;4.50;;;;;;;;;;6311424;28;20044;-87
2023/07/14 08:36:14;;;;;;;6.45;4.88;;;;;;;;;;6314822;28;20094;-87
2023/07/14 08:39:23;;;;;;;7.38;5.10;;;;;;;;;;6314708;28;20059;-88
2023/07/14 08:42:30;;;;;;;9.10;6.43;;;;;;;;;;6321452;28;20294;-88
2023/07/14 08:45:45;;;;;;;8.68;5.93;;;;;;;;;;6322367;28;20059;-87
2023/07/14 08:52:12;;;;;;;8.77;6.07;;;;;;;;;;6311027;28;20062;-86
2023/07/14 08:55:15;;;;;;;10.90;6.53;;;;;;;;;;6319325;28;20052;-78
2023/07/14 08:58:19;;;;;;;10.07;6.22;;;;;;;;;;6317491;28;20278;-79
2023/07/14 09:01:26;;;;;;;10.07;7.20;;;;;;;;;;6320329;28;20050;-80
2023/07/14 09:04:32;;;;;;;13.20;7.95;;;;;;;;;;6320196;28;20044;-84
2023/07/14 09:07:33;;;;;;;9.65;6.05;;;;;;;;;;6322334;28;20514;-82
2023/07/14 09:10:37;;;;;;;11.82;6.30;;;;;;;;;;6323607;28;20230;-78
2023/07/14 09:13:44;;;;;;;15.82;6.38;;;;;;;;;;6322913;28;20056;-81
2023/07/14 09:16:50;;;;;;;15.35;7.20;;;;;;;;;;6324053;28;20079;-76
2023/07/14 09:20:07;;;;;;;13.30;6.82;;;;;;;;;;6322990;28;20063;-78
2023/07/14 09:23:22;;;;;;;14.75;7.68;;;;;;;;;;6318586;28;20044;-78
2023/07/14 09:26:29;;;;;;;13.40;8.00;;;;;;;;;;6318911;28;20044;-77
2023/07/14 09:29:33;;;;;;;10.90;8.43;;;;;;;;;;6319723;28;20087;-76
2023/07/14 09:32:37;;;;;;;12.30;7.93;;;;;;;;;;6319284;28;20324;-76
2023/07/14 09:35:40;;;;;;;20.13;8.88;;;;;;;;;;6320314;28;20366;-77
2023/07/14 09:38:46;;;;;;;10.75;8.07;;;;;;;;;;6319591;28;20055;-76
2023/07/14 09:41:52;;;;;;;13.18;9.93;;;;;;;;;;6319895;28;20240;-76
2023/07/14 09:44:58;;;;;;;16.95;10.88;;;;;;;;;;6321978;28;20044;-76
2023/07/14 09:48:03;;;;;;;15.60;11.18;;;;;;;;;;6316654;28;20259;-75
2023/07/14 09:51:11;;;;;;;16.15;11.32;;;;;;;;;;6324932;28;21243;-74
2023/07/14 09:54:13;;;;;;;16.38;10.52;;;;;;;;;;6321568;28;20052;-76
2023/07/14 09:57:14;;;;;;;13.15;10.50;;;;;;;;;;6323121;28;20044;-75
2023/07/14 10:00:19;;;;;;;18.38;10.80;;;;;;;;;;6321682;28;20106;-77
2023/07/14 10:03:28;;;;;;;15.52;10.32;;;;;;;;;;6316626;28;20556;-76
2023/07/14 10:06:30;;;;;;;13.35;9.90;;;;;;;;;;6322183;28;20058;-76
2023/07/14 10:09:31;;;;;;;13.55;9.82;;;;;;;;;;6323009;28;20051;-76
2023/07/14 10:12:35;;;;;;;11.40;8.43;;;;;;;;;;6319036;28;20290;-76
2023/07/14 10:15:38;;;;;;;17.73;8.65;;;;;;;;;;6323257;28;20123;-76
2023/07/14 10:18:49;;;;;;;9.52;7.30;;;;;;;;;;6323185;28;20100;-75
2023/07/14 10:21:52;;;;;;;12.63;7.97;;;;;;;;;;6321299;28;20428;-75
2023/07/14 10:24:56;;;;;;;10.10;6.10;;;;;;;;;;6330280;28;20067;-77
2023/07/14 10:27:59;;;;;;;12.25;7.50;;;;;;;;;;6319099;28;20058;-75
2023/07/14 10:31:10;;;;;;;9.50;6.47;;;;;;;;;;6319104;28;20248;-76
2023/07/14 10:34:30;;;;;;;8.48;6.53;;;;;;;;;;6320446;28;20048;-76
2023/07/14 10:37:44;;;;;;;9.82;6.72;;;;;;;;;;6319079;28;20050;-75
2023/07/14 10:40:49;;;;;;;8.18;6.05;;;;;;;;;;6320025;28;20072;-77
2023/07/14 10:43:54;;;;;;;9.43;6.75;;;;;;;;;;6318804;28;20255;-76
2023/07/14 10:46:57;;;;;;;9.90;6.68;;;;;;;;;;6321627;28;20062;-75
2023/07/14 10:50:03;;;;;;;10.77;6.50;;;;;;;;;;6321079;28;20048;-76
2023/07/14 10:53:08;;;;;;;7.93;6.10;;;;;;;;;;6317061;28;20058;-75
2023/07/14 10:56:15;;;;;;;8.52;6.10;;;;;;;;;;6320844;28;20048;-75
2023/07/14 10:59:21;;;;;;;6.65;5.72;;;;;;;;;;6322235;28;20048;-75
2023/07/14 11:02:24;;;;;;;9.77;5.32;;;;;;;;;;6321408;28;20056;-75
2023/07/14 11:05:26;;;;;;;6.87;4.93;;;;;;;;;;6321275;28;20221;-75
2023/07/14 11:08:31;;;;;;;12.13;5.97;;;;;;;;;;6316712;28;20270;-76
2023/07/14 11:11:37;;;;;;;7.78;5.18;;;;;;;;;;6321688;28;20339;-75
2023/07/14 11:14:44;;;;;;;6.82;4.95;;;;;;;;;;6315487;28;20224;-74
2023/07/14 11:17:52;;;;;;;8.15;5.82;;;;;;;;;;6320250;28;20308;-74
2023/07/14 11:21:04;;;;;;;10.85;6.30;;;;;;;;;;6320119;28;20040;-75
2023/07/14 11:24:13;;;;;;;8.57;6.50;;;;;;;;;;6324313;28;20060;-74
2023/07/14 11:27:24;;;;;;;10.25;5.60;;;;;;;;;;6326615;28;20055;-79
2023/07/14 11:30:29;;;;;;;7.80;5.40;;;;;;;;;;6323011;28;20052;-80
2023/07/14 11:33:37;;;;;;;7.10;5.40;;;;;;;;;;6328370;28;20285;-80
2023/07/14 11:36:43;;;;;;;6.75;5.13;;;;;;;;;;6324765;28;20112;-83
2023/07/14 11:39:49;;;;;;;8.52;5.57;;;;;;;;;;6326695;28;20060;-80
2023/07/14 11:42:52;;;;;;;11.63;5.95;;;;;;;;;;6325550;28;20093;-82
2023/07/14 11:45:56;;;;;;;10.68;5.45;;;;;;;;;;6326329;28;20059;-81
2023/07/14 11:49:03;;;;;;;10.13;5.53;;;;;;;;;;6324912;28;20060;-83
2023/07/14 11:52:10;;;;;;;7.35;5.15;;;;;;;;;;6324697;28;20120;-78
2023/07/14 11:55:23;;;;;;;10.40;4.75;;;;;;;;;;6323580;28;20993;-76
2023/07/14 11:58:27;;;;;;;6.32;4.65;;;;;;;;;;6325203;28;20323;-76
2023/07/14 12:01:28;;;;;;;6.93;4.78;;;;;;;;;;6330111;28;20056;-76
2023/07/14 12:04:31;;;;;;;5.90;4.68;;;;;;;;;;6331325;28;20052;-76
2023/07/14 12:07:35;;;;;;;7.00;4.78;;;;;;;;;;6330769;28;20047;-77
2023/07/14 12:10:48;;;;;;;6.57;4.20;;;;;;;;;;6323331;28;20260;-77
2023/07/14 12:13:51;;;;;;;7.00;4.10;;;;;;;;;;6330610;28;20048;-78
2023/07/14 12:16:52;;;;;;;;;;;;;;;;;;6328944;28;20047;-77
2023/07/14 12:19:55;;;;;;;8.35;4.38;;;;;;;;;;6333200;28;20001;-77
2023/07/14 12:23:20;;;;;;;8.35;3.97;;;;;;;;;;6319847;28;20358;-76
2023/07/14 12:26:31;;;;;;;8.45;4.00;;;;;;;;;;6328893;28;20051;-76
2023/07/14 12:29:33;;;;;;;6.70;4.47;;;;;;;;;;6321317;28;20102;-81
2023/07/14 12:32:34;;;;;;;6.03;4.03;;;;;;;;;;6323098;28;20266;-82
2023/07/14 12:35:38;;;;;;;5.45;4.25;;;;;;;;;;6323827;28;20412;-81
2023/07/14 12:38:44;;;;;;;7.55;4.20;;;;;;;;;;6326130;28;20056;-81
2023/07/14 12:41:49;;;;;;;7.80;3.80;;;;;;;;;;6325720;28;20052;-82
2023/07/14 12:44:53;;;;;;;6.53;3.30;;;;;;;;;;6326758;28;20105;-83
2023/07/14 12:47:58;;;;;;;4.93;3.08;;;;;;;;;;6323582;28;20062;-82
2023/07/14 12:51:05;;;;;;;4.32;2.47;;;;;;;;;;6327540;28;20068;-81
2023/07/14 12:54:20;;;;;;;5.57;2.95;;;;;;;;;;6327037;28;20097;-81
2023/07/14 12:57:32;;;;;;;5.40;2.95;;;;;;;;;;6323410;28;20063;-82
2023/07/14 13:00:33;;;;;;;7.72;2.60;;;;;;;;;;6326131;28;20052;-84
2023/07/14 13:03:41;;;;;;;4.88;2.75;;;;;;;;;;6323158;28;20143;-79
2023/07/14 13:06:43;;;;;;;6.15;2.67;;;;;;;;;;6316478;28;20060;-79
2023/07/14 13:09:45;;;;;;;5.47;2.30;;;;;;;;;;6323911;28;20055;-80
2023/07/14 13:12:51;;;;;;;4.38;2.42;;;;;;;;;;6322822;28;20555;-79
2023/07/14 13:15:54;;;;;;;6.30;3.13;;;;;;;;;;6322265;28;20044;-75
2023/07/14 13:18:56;;;;;;;4.45;2.40;;;;;;;;;;6325045;28;20388;-77
2023/07/14 13:21:59;;;;;;;4.03;2.30;;;;;;;;;;6322422;28;20079;-80
2023/07/14 13:25:04;;;;;;;7.25;2.40;;;;;;;;;;6288717;28;20057;-80
2023/07/14 13:28:20;;;;;;;5.35;2.80;;;;;;;;;;6324201;28;20052;-78
2023/07/14 13:31:27;;;;;;;7.30;2.28;;;;;;;;;;6319624;28;20052;-78
2023/07/14 13:34:30;;;;;;;4.18;2.40;;;;;;;;;;6318579;28;20055;-78
2023/07/14 13:37:38;;;;;;;5.15;2.13;;;;;;;;;;6316538;28;20063;-79
2023/07/14 13:40:41;;;;;;;3.78;2.45;;;;;;;;;;6315568;28;20056;-79
2023/07/14 13:43:44;;;;;;;4.85;2.50;;;;;;;;;;6320565;28;20142;-78
2023/07/14 13:46:48;;;;;;;3.38;2.22;;;;;;;;;;6311817;28;20052;-79
2023/07/14 13:49:50;;;;;;;4.72;2.38;;;;;;;;;;6324116;28;20063;-79
2023/07/14 13:52:52;;;;;;;4.70;2.38;;;;;;;;;;6325179;28;20109;-78
2023/07/14 13:56:02;;;;;;;5.30;2.20;;;;;;;;;;6319257;28;20109;-77
2023/07/14 14:02:26;;;;;;;4.47;2.38;;;;;;;;;;6320710;28;20097;-80
2023/07/14 14:05:30;;;;;;;5.50;2.80;;;;;;;;;;6318017;28;20056;-79
2023/07/14 14:08:32;;;;;;;4.97;2.47;;;;;;;;;;6321125;28;20052;-78
2023/07/14 14:11:33;;;;;;;6.28;2.80;;;;;;;;;;6320419;28;20072;-78
2023/07/14 14:14:35;;;;;;;5.53;2.10;;;;;;;;;;6311130;28;20123;-81
2023/07/14 14:17:39;;;;;;;6.15;2.78;;;;;;;;;;6326628;28;20105;-79
2023/07/14 14:20:41;;;;;;;6.78;2.35;;;;;;;;;;6324602;28;20051;-80
2023/07/14 14:23:42;;;;;;;3.43;2.23;;;;;;;;;;6316445;28;20070;-80
2023/07/14 14:26:44;;;;;;;4.72;2.20;;;;;;;;;;6319790;28;20060;-81
2023/07/14 14:29:47;;;;;;;4.77;2.20;;;;;;;;;;6309321;28;20095;-80
2023/07/14 14:32:50;;;;;;;5.35;2.95;;;;;;;;;;6316742;28;20056;-80
2023/07/14 14:35:52;;;;;;;5.30;2.20;;;;;;;;;;6319970;28;20045;-80
2023/07/14 14:38:54;;;;;;;3.25;2.08;;;;;;;;;;6319032;28;20143;-80
2023/07/14 14:41:57;;;;;;;6.03;3.00;;;;;;;;;;6319923;28;20044;-81
2023/07/14 14:44:59;;;;;;;6.28;2.55;;;;;;;;;;6322141;28;20228;-80
2023/07/14 14:48:02;;;;;;;6.65;3.20;;;;;;;;;;6318724;28;20051;-78
2023/07/14 14:51:03;;;;;;;4.82;2.70;;;;;;;;;;6317457;28;20123;-79
2023/07/14 14:54:05;;;;;;;4.43;2.45;;;;;;;;;;6317978;28;20103;-79
2023/07/14 14:57:08;;;;;;;8.07;2.88;;;;;;;;;;6323150;28;20048;-79
2023/07/14 15:00:19;;;;;;;7.22;2.97;;;;;;;;;;6318645;28;20228;-79
2023/07/14 15:03:22;;;;;;;5.95;2.60;;;;;;;;;;6318570;28;20058;-79
2023/07/14 15:06:24;;;;;;;5.50;3.42;;;;;;;;;;6317302;28;20323;-79
2023/07/14 15:09:26;;;;;;;5.13;3.03;;;;;;;;;;6317567;28;20062;-78
2023/07/14 15:12:27;;;;;;;4.95;3.47;;;;;;;;;;6317313;28;20728;-76
2023/07/14 15:15:31;;;;;;;11.05;3.70;;;;;;;;;;6319193;28;20224;-79
2023/07/14 15:18:34;;;;;;;6.07;3.15;;;;;;;;;;6318768;28;20044;-79
2023/07/14 15:21:36;;;;;;;7.65;3.65;;;;;;;;;;6317672;28;20052;-79
2023/07/14 15:24:37;;;;;;;6.95;3.20;;;;;;;;;;6319818;28;20987;-79
2023/07/14 15:27:39;;;;;;;7.38;2.97;;;;;;;;;;6320805;28;20060;-79
2023/07/14 15:30:41;;;;;;;4.93;2.93;;;;;;;;;;6318568;28;20103;-79
2023/07/14 15:33:44;;;;;;;6.88;3.13;;;;;;;;;;6316378;28;20548;-79
2023/07/14 15:36:45;;;;;;;8.40;3.00;;;;;;;;;;6320836;28;20072;-78
2023/07/14 15:39:47;;;;;;;7.28;3.20;;;;;;;;;;6324048;28;20135;-79
2023/07/14 15:42:48;;;;;;;5.97;3.42;;;;;;;;;;6325780;28;20058;-77
2023/07/14 15:45:51;;;;;;;6.22;2.90;;;;;;;;;;6317690;28;20054;-77
2023/07/14 15:48:55;;;;;;;5.57;3.30;;;;;;;;;;6322390;28;20048;-78
2023/07/14 15:51:59;;;;;;;8.23;3.13;;;;;;;;;;6325398;28;20051;-78
2023/07/14 15:55:00;;;;;;;7.03;3.50;;;;;;;;;;6322953;28;20067;-77
2023/07/14 15:58:02;;;;;;;4.82;3.00;;;;;;;;;;6325534;28;20089;-78
2023/07/14 16:01:05;;;;;;;5.28;3.22;;;;;;;;;;6322047;28;20048;-80
2023/07/14 16:04:08;;;;;;;5.63;3.10;;;;;;;;;;6321162;28;20056;-78
2023/07/14 16:07:09;;;;;;;;;;;;;;;;;;6322834;28;20053;-79
2023/07/14 16:10:13;;;;;;;5.53;3.42;;;;;;;;;;6321619;28;19973;-80
2023/07/14 16:13:15;;;;;;;7.20;3.33;;;;;;;;;;6319309;28;20343;-79
2023/07/14 16:16:19;;;;;;;3.92;3.00;;;;;;;;;;6322516;28;20548;-77
2023/07/14 16:19:23;;;;;;;6.80;3.53;;;;;;;;;;6321831;28;20138;-79
2023/07/14 16:22:25;;;;;;;7.90;3.83;;;;;;;;;;6319664;28;20048;-79
2023/07/14 16:25:31;;;;;;;7.18;3.10;;;;;;;;;;6321283;28;20085;-79
2023/07/14 16:28:32;;;;;;;7.07;3.38;;;;;;;;;;6323078;28;20044;-78
2023/07/14 16:31:34;;;;;;;5.20;3.03;;;;;;;;;;6320362;28;20048;-79
2023/07/14 16:35:14;;;;;;;5.85;2.83;;;;;;;;;;6323047;28;20058;-78
2023/07/14 16:38:18;;;;;;;7.07;3.40;;;;;;;;;;6316347;28;20092;-79
2023/07/14 16:41:20;;;;;;;4.20;2.83;;;;;;;;;;6325649;28;20113;-79
2023/07/14 16:44:24;;;;;;;7.20;2.97;;;;;;;;;;6319928;28;20356;-79
2023/07/14 16:47:26;;;;;;;5.68;3.10;;;;;;;;;;6320752;28;20956;-79
2023/07/14 16:50:27;;;;;;;7.55;3.53;;;;;;;;;;6320736;28;20056;-78
2023/07/14 16:53:30;;;;;;;6.25;3.30;;;;;;;;;;6314353;28;20052;-78
2023/07/14 16:56:32;;;;;;;;;;;;;;;;;;6321149;28;20051;-78
2023/07/14 16:59:33;;;;;;;6.35;2.90;;;;;;;;;;6321199;28;20579;-77
2023/07/14 17:02:48;;;;;;;89.55;67.63;;;;;;;;;;6321675;27;20075;-80
2023/07/14 17:05:51;;;;;;;52.17;33.75;;;;;;;;;;6313130;28;20270;-78
2023/07/14 17:09:01;;;;;;;7.18;4.95;;;;;;;;;;6314676;28;20063;-78
2023/07/14 17:12:04;;;;;;;6.47;3.42;;;;;;;;;;6323019;28;20054;-78
2023/07/14 17:15:08;;;;;;;8.43;3.38;;;;;;;;;;6318477;28;20048;-78
2023/07/14 17:21:54;;;;;;;8.45;2.88;;;;;;;;;;6301978;28;20056;-77
2023/07/14 17:24:57;;;;;;;7.75;3.20;;;;;;;;;;6324300;28;20052;-77
2023/07/14 17:27:59;;;;;;;7.22;3.13;;;;;;;;;;6317886;28;20134;-78
2023/07/14 17:31:01;;;;;;;10.73;3.38;;;;;;;;;;6318929;28;20227;-78
2023/07/14 17:34:02;;;;;;;10.90;3.70;;;;;;;;;;6320667;28;20112;-77
2023/07/14 17:37:05;;;;;;;7.22;3.72;;;;;;;;;;6320996;28;20075;-79
2023/07/14 17:40:17;;;;;;;5.70;3.33;;;;;;;;;;6320449;28;20052;-79
2023/07/14 17:43:19;;;;;;;10.00;3.67;;;;;;;;;;6319720;28;20056;-79
2023/07/14 17:46:22;;;;;;;5.53;3.75;;;;;;;;;;6319486;28;20048;-79
2023/07/14 17:49:24;;;;;;;;;;;;;;;;;;6323440;28;20164;-78
2023/07/14 17:52:25;;;;;;;6.90;3.15;;;;;;;;;;6323129;28;20110;-80
2023/07/14 17:55:28;;;;;;;6.53;3.70;;;;;;;;;;6319728;28;20056;-81
2023/07/14 17:58:30;;;;;;;;;;;;;;;;;;6320913;28;20048;-82
2023/07/14 18:01:31;;;;;;;5.28;3.60;;;;;;;;;;6322817;28;20312;-79
2023/07/14 18:04:34;;;;;;;9.70;3.55;;;;;;;;;;6317299;28;20053;-78
2023/07/14 18:07:35;;;;;;;5.55;3.08;;;;;;;;;;6317577;28;20044;-77
2023/07/14 18:10:39;;;;;;;9.90;4.07;;;;;;;;;;6318451;28;20145;-78
2023/07/14 18:13:43;;;;;;;6.40;3.45;;;;;;;;;;6319799;28;20063;-77
2023/07/14 18:16:44;;;;;;;8.00;3.78;;;;;;;;;;6320407;28;20052;-78
2023/07/14 18:19:46;;;;;;;6.20;3.60;;;;;;;;;;6316707;28;20339;-77
2023/07/14 18:22:48;;;;;;;5.40;3.40;;;;;;;;;;6321434;28;20426;-76
2023/07/14 18:25:51;;;;;;;9.77;3.60;;;;;;;;;;6315054;28;20052;-76
2023/07/14 18:28:53;;;;;;;6.75;3.63;;;;;;;;;;6322049;28;20055;-79
2023/07/14 18:31:55;;;;;;;8.82;3.38;;;;;;;;;;6326168;28;20052;-79
2023/07/14 18:34:57;;;;;;;5.30;3.85;;;;;;;;;;6327286;28;20064;-79
2023/07/14 18:38:00;;;;;;;7.65;4.38;;;;;;;;;;6328973;28;20051;-78
2023/07/14 18:41:13;;;;;;;7.38;3.50;;;;;;;;;;6329595;28;20385;-79
2023/07/14 18:44:16;;;;;;;7.97;3.10;;;;;;;;;;6327397;28;20054;-79
2023/07/14 18:47:18;;;;;;;;;;;;;;;;;;6330863;28;20331;-79
2023/07/14 18:50:19;;;;;;;6.50;3.38;;;;;;;;;;6326478;28;19962;-79
2023/07/14 18:53:23;;;;;;;5.80;3.55;;;;;;;;;;6326672;28;20350;-79
2023/07/14 18:56:26;;;;;;;7.10;3.38;;;;;;;;;;6328113;28;20052;-79
2023/07/14 18:59:28;;;;;;;5.72;3.10;;;;;;;;;;6325758;28;20052;-79
2023/07/14 19:02:32;;;;;;;8.77;3.28;;;;;;;;;;6323427;28;20102;-78
2023/07/14 19:05:37;;;;;;;7.53;4.05;;;;;;;;;;6319620;28;20052;-78
2023/07/14 19:08:39;;;;;;;7.13;3.35;;;;;;;;;;6321730;28;20108;-79
2023/07/14 19:11:42;;;;;;;5.05;3.33;;;;;;;;;;6318083;28;20059;-80
2023/07/14 19:18:02;;;;;;;6.80;3.55;;;;;;;;;;6319393;28;20103;-79
2023/07/14 19:21:09;;;;;;;7.15;3.13;;;;;;;;;;6327215;28;20115;-79
2023/07/14 19:24:13;;;;;;;6.10;3.75;;;;;;;;;;6325317;28;20063;-80
2023/07/14 19:27:17;;;;;;;6.97;3.58;;;;;;;;;;6326754;28;20299;-79
2023/07/14 19:30:21;;;;;;;7.80;3.70;;;;;;;;;;6323982;28;20098;-79
2023/07/14 19:33:23;;;;;;;7.53;3.35;;;;;;;;;;6325605;28;20059;-79
2023/07/14 19:36:25;;;;;;;5.60;3.60;;;;;;;;;;6325955;28;20399;-79
2023/07/14 19:39:26;;;;;;;6.97;4.30;;;;;;;;;;6327211;28;20114;-79
2023/07/14 19:42:31;;;;;;;7.40;3.80;;;;;;;;;;6323648;28;20048;-79
2023/07/14 19:45:38;;;;;;;9.98;4.07;;;;;;;;;;6326946;28;20048;-79
2023/07/14 19:48:42;;;;;;;8.73;4.18;;;;;;;;;;6325311;28;20173;-79
2023/07/14 19:51:44;;;;;;;7.88;3.85;;;;;;;;;;6326659;28;20052;-79
2023/07/14 19:54:46;;;;;;;7.72;4.22;;;;;;;;;;6323607;28;20056;-79
2023/07/14 19:57:50;;;;;;;8.98;4.00;;;;;;;;;;6325766;28;20151;-79
2023/07/14 20:00:53;;;;;;;7.35;4.30;;;;;;;;;;6326124;28;20067;-79
2023/07/14 20:03:55;;;;;;;7.72;4.10;;;;;;;;;;6322226;28;20119;-79
2023/07/14 20:06:57;;;;;;;6.45;3.63;;;;;;;;;;6322778;28;20055;-79
2023/07/14 20:09:59;;;;;;;8.40;4.55;;;;;;;;;;6324615;28;20085;-79
2023/07/14 20:13:02;;;;;;;6.30;3.72;;;;;;;;;;6324763;28;20050;-79
2023/07/14 20:16:04;;;;;;;5.35;3.97;;;;;;;;;;6320804;28;20059;-79
2023/07/14 20:19:06;;;;;;;6.78;3.85;;;;;;;;;;6326325;28;20090;-79
2023/07/14 20:22:16;;;;;;;10.25;3.80;;;;;;;;;;6333033;28;20101;-79
2023/07/14 20:25:19;;;;;;;7.47;4.60;;;;;;;;;;6332222;28;20147;-79
2023/07/14 20:28:26;;;;;;;6.50;4.25;;;;;;;;;;6309361;28;20050;-79